New Richmond Regional Airport
KRNH : now visible

Airfield :











YOU CAN JOIN US ON...

 
LOGIN :

Register | Disclaimer

   EN    FR    IT 

 









Legend :    VFR   Marginal VFR   IFR   Intensive IFR   Very Intensive IFR
Visi :
Ceiling :
>= 8 km
>= 3000ft
5 to 8 km
1000 to 3000 ft
1500m to 5 km
500 to 1000 ft
800 to 1500m
200 to 500 ft
< 800m
< 200 ft
Symbols :   Thunderstorms  Fog  Heavy snow  Heavy precipitations  Wind > 20 kt







- Airport Elevation : 998 ft


KRNH - New Richmond Regional

CURRENT METAR :
  • 192235Z AUTO 01016G22KT 10SM -DZ SCT015 OVC022 03/01 A2984 RMK AO2 T00310012

EXPIRED METARs :
  • 192215Z AUTO 01016G21KT 10SM -DZ SCT009 BKN015 OVC024 03/02 A2982 RMK AO2 T00300015
  • 192155Z AUTO 01006G19KT 7SM -RA SCT009 BKN013 OVC020 03/02 A2982 RMK AO2 P0001 T00320022
  • 192135Z AUTO 36014G19KT 7SM -RA BKN007 OVC013 03/02 A2981 RMK AO2 P0001 T00290022
  • 192115Z AUTO 36016G19KT 7SM -RA BKN009 OVC013 03/02 A2979 RMK AO2 P0001 T00280019
  • 192055Z AUTO 01014KT 7SM -RA SCT007 BKN013 OVC018 03/02 A2980 RMK AO2 P0003 60007 T00260015
  • 192035Z AUTO 01013G20KT 5SM -RA BKN013 OVC020 03/01 A2979 RMK AO2 P0002 T00250011
  • 192015Z AUTO 01014G20KT 7SM -RA BKN014 OVC022 03/01 A2979 RMK AO2 P0001 T00260011
  • 191955Z AUTO 01015G22KT 7SM -RA BKN013 OVC020 03/01 A2978 RMK AO2 P0003 T00290014

TAF KRNH
Valid from the 19 at 21:00 until the 20 at 18:00 UTC


192059Z 1921/2018 36015G21KT 6SM -SHRA BR OVC012
FM200300 35012G22KT P6SM VCSH BKN020
FM200400 35009KT P6SM BKN035
FM200800 32006KT P6SM SCT090
KZMP FIR / North America



MET'MAP, your aeronautical weather chart ! - Copyright ORBIFLY December 2007 - Disclaimer

ORBIFLY MET'MAP TEAM :

Programming & Development : Alexandra Zaïnal
Concept & Development : Baudouin d'Aumeries
Co-Development & Prog : Marc-Olivier Méhu
Technical & hardware support : Manuel Goepfert

Contact : metmap@orbifly.com




SOURCES & CREDITS :

   NOAA       Earth
Advisory